Time;durP1;ratioP1;P1;durP2;ratioP2;P2;SDS_P1;SDS_P2;PMS_P1;PMS_P2;Temp;Humidity;BMP_temperature;BMP_pressure;BME280_temperature;BME280_humidity;BME280_pressure;Samples;Min_cycle;Max_cycle;Signal;HPM_P1;HPM_P2
2023/08/07 00:00:00;;;;;;;5.57;1.75;;;13.10;61.20;;;;;;5036039;28;20115;-77
2023/08/07 00:02:26;;;;;;;4.28;1.05;;;13.10;45.10;;;;;;5048696;28;20498;-79
2023/08/07 00:04:52;;;;;;;4.70;1.15;;;13.20;4.10;;;;;;5038275;28;20048;-77
2023/08/07 00:07:18;;;;;;;3.13;0.80;;;13.20;1.00;;;;;;5037487;28;20037;-76
2023/08/07 00:09:44;;;;;;;3.50;1.10;;;13.20;1.00;;;;;;5048852;28;20046;-75
2023/08/07 00:12:10;;;;;;;2.80;1.20;;;13.20;1.00;;;;;;5033615;28;20317;-77
2023/08/07 00:14:37;;;;;;;2.83;0.85;;;13.20;1.00;;;;;;5035442;28;20033;-76
2023/08/07 00:17:04;;;;;;;2.10;0.85;;;13.20;1.00;;;;;;5038168;28;20029;-76
2023/08/07 00:19:30;;;;;;;2.10;0.73;;;13.20;1.00;;;;;;5037804;28;20044;-78
2023/08/07 00:21:56;;;;;;;2.85;1.40;;;13.20;1.00;;;;;;5033823;28;20498;-78
2023/08/07 00:24:22;;;;;;;1.42;0.60;;;13.20;1.00;;;;;;5035032;28;20045;-77
2023/08/07 00:26:48;;;;;;;2.33;0.68;;;13.20;1.00;;;;;;5033775;28;20155;-77
2023/08/07 00:29:14;;;;;;;3.17;0.80;;;13.20;1.00;;;;;;5034713;28;20045;-77
2023/08/07 00:31:40;;;;;;;5.25;1.05;;;13.20;1.00;;;;;;5037580;28;20211;-77
2023/08/07 00:34:09;;;;;;;2.58;0.95;;;13.20;1.00;;;;;;5036033;28;20136;-77
2023/08/07 00:36:35;;;;;;;4.22;0.70;;;13.30;1.00;;;;;;5033603;28;20476;-77
2023/08/07 00:39:03;;;;;;;3.13;1.33;;;13.30;1.00;;;;;;5035251;28;20052;-76
2023/08/07 00:41:30;;;;;;;4.05;1.42;;;13.30;1.00;;;;;;5035660;28;20037;-78
2023/08/07 00:43:56;;;;;;;3.80;1.20;;;13.30;1.00;;;;;;5031452;28;20037;-75
2023/08/07 00:46:23;;;;;;;10.18;1.50;;;13.30;1.00;;;;;;5033236;28;20056;-77
2023/08/07 00:48:51;;;;;;;5.13;1.25;;;13.30;1.00;;;;;;5050699;28;20041;-77
2023/08/07 00:51:17;;;;;;;6.35;1.45;;;13.30;1.00;;;;;;5034052;28;20052;-77
2023/08/07 00:53:43;;;;;;;3.85;1.30;;;13.40;1.00;;;;;;5049350;28;20044;-78
2023/08/07 00:56:09;;;;;;;7.85;1.92;;;13.40;1.00;;;;;;5038947;28;20044;-78
2023/08/07 00:58:36;;;;;;;2.22;0.75;;;13.40;1.00;;;;;;5036094;28;20040;-75
2023/08/07 01:01:03;;;;;;;2.58;1.25;;;13.40;1.00;;;;;;5033891;28;20049;-75
2023/08/07 01:03:29;;;;;;;5.30;0.75;;;13.40;1.00;;;;;;5034417;28;20057;-76
2023/08/07 01:05:55;;;;;;;3.83;0.82;;;13.40;1.00;;;;;;5040316;28;20045;-77
2023/08/07 01:08:24;;;;;;;2.95;0.88;;;13.40;1.00;;;;;;5031890;28;20044;-78
2023/08/07 01:11:21;;;;;;;3.92;0.77;;;13.30;1.00;;;;;;5032367;28;20462;-77
2023/08/07 01:13:55;;;;;;;5.97;0.70;;;13.40;1.00;;;;;;5035529;28;20033;-76
2023/08/07 01:16:29;;;;;;;4.03;0.90;;;13.40;1.00;;;;;;5035172;28;20044;-79
2023/08/07 01:18:57;;;;;;;2.92;1.33;;;13.40;1.00;;;;;;5032345;28;20041;-77
2023/08/07 01:21:23;;;;;;;3.05;0.65;;;13.40;1.00;;;;;;5040281;28;20033;-77
2023/08/07 01:23:49;;;;;;;3.15;0.95;;;13.40;1.00;;;;;;5036766;28;20119;-75
2023/08/07 01:26:18;;;;;;;3.35;0.93;;;13.40;1.00;;;;;;5038358;28;20045;-76
2023/08/07 01:29:12;;;;;;;2.08;1.20;;;13.30;1.00;;;;;;5040122;28;20037;-77
2023/08/07 01:31:40;;;;;;;4.72;1.38;;;13.40;1.00;;;;;;5048003;28;20041;-77
2023/08/07 01:34:08;;;;;;;2.88;1.10;;;13.40;1.00;;;;;;5039162;28;20490;-76
2023/08/07 01:36:34;;;;;;;5.63;1.42;;;13.40;1.00;;;;;;5036863;28;20033;-77
2023/08/07 01:39:02;;;;;;;5.00;1.75;;;13.40;99.90;;;;;;5031491;28;20034;-77
2023/08/07 01:41:30;;;;;;;2.63;0.93;;;13.40;99.90;;;;;;5034095;28;20131;-77
2023/08/07 01:43:57;;;;;;;4.05;1.25;;;13.30;99.90;;;;;;5035193;28;20029;-76
2023/08/07 01:46:23;;;;;;;1.95;0.73;;;13.30;99.90;;;;;;5036267;28;20033;-79
2023/08/07 01:48:50;;;;;;;1.85;0.80;;;13.40;99.90;;;;;;5034124;28;20048;-75
2023/08/07 01:51:16;;;;;;;2.10;1.02;;;13.50;99.90;;;;;;5030990;28;20056;-77
2023/08/07 01:53:42;;;;;;;3.60;0.95;;;13.40;99.90;;;;;;5034070;28;20050;-78
2023/08/07 01:56:08;;;;;;;3.92;1.02;;;13.40;99.90;;;;;;5033255;28;20391;-74
2023/08/07 01:58:34;;;;;;;2.67;0.80;;;13.40;99.90;;;;;;5034292;28;20490;-76
2023/08/07 02:01:00;;;;;;;3.85;0.88;;;13.40;99.90;;;;;;5049338;28;20054;-77
2023/08/07 02:03:27;;;;;;;2.85;1.15;;;13.40;99.90;;;;;;5048775;28;20053;-77
2023/08/07 02:05:53;;;;;;;4.05;2.05;;;13.40;99.90;;;;;;5038243;28;20030;-78
2023/08/07 02:08:19;;;;;;;4.68;1.40;;;13.40;99.90;;;;;;5036996;28;20045;-78
2023/08/07 02:10:45;;;;;;;6.10;1.35;;;13.40;99.90;;;;;;5031395;28;20048;-77
2023/08/07 02:13:11;;;;;;;3.13;1.02;;;13.40;99.90;;;;;;5035422;28;20032;-76
2023/08/07 02:15:37;;;;;;;3.85;1.42;;;13.40;99.90;;;;;;5036158;28;20038;-77
2023/08/07 02:18:03;;;;;;;11.90;1.58;;;13.30;99.90;;;;;;5049646;28;20047;-76
2023/08/07 02:20:30;;;;;;;3.42;1.02;;;13.30;99.90;;;;;;5029817;28;20053;-75
2023/08/07 02:22:56;;;;;;;4.10;1.45;;;13.30;99.90;;;;;;5049950;28;20041;-77
2023/08/07 02:25:22;;;;;;;3.90;1.02;;;13.30;99.90;;;;;;5035003;28;20113;-77
2023/08/07 02:27:48;;;;;;;3.60;1.30;;;13.40;99.90;;;;;;5032510;28;20081;-77
2023/08/07 02:30:14;;;;;;;3.72;1.10;;;13.40;99.90;;;;;;5034184;28;20038;-78
2023/08/07 02:32:42;;;;;;;4.82;1.30;;;13.30;99.90;;;;;;5035264;28;20049;-75
2023/08/07 02:35:09;;;;;;;3.65;1.73;;;13.30;99.90;;;;;;5037930;28;20049;-75
2023/08/07 02:37:35;;;;;;;4.63;1.35;;;13.30;99.90;;;;;;5032721;28;20030;-78
2023/08/07 02:40:01;;;;;;;2.80;1.33;;;13.30;99.90;;;;;;5035624;28;20041;-78
2023/08/07 02:42:27;;;;;;;4.53;1.15;;;13.30;99.90;;;;;;5034513;28;20052;-78
2023/08/07 02:44:53;;;;;;;7.28;1.95;;;13.30;99.90;;;;;;5048597;28;20458;-77
2023/08/07 02:47:19;;;;;;;5.22;1.20;;;13.30;99.90;;;;;;5028580;28;20044;-78
2023/08/07 02:49:45;;;;;;;5.72;1.20;;;13.30;99.90;;;;;;5049596;28;20037;-76
2023/08/07 02:52:11;;;;;;;5.50;2.38;;;13.30;99.90;;;;;;5032974;28;20029;-75
2023/08/07 02:54:38;;;;;;;3.22;0.90;;;13.30;99.90;;;;;;5037871;28;20052;-77
2023/08/07 02:57:04;;;;;;;6.22;1.63;;;13.30;99.90;;;;;;5036687;28;20052;-76
2023/08/07 02:59:30;;;;;;;5.85;0.73;;;13.30;99.90;;;;;;5053323;28;20042;-76
2023/08/07 03:01:56;;;;;;;3.50;0.73;;;13.20;99.90;;;;;;5032823;28;20037;-77
2023/08/07 03:04:22;;;;;;;2.80;1.30;;;13.20;99.90;;;;;;5053679;28;20470;-76
2023/08/07 03:06:49;;;;;;;4.45;1.55;;;13.20;99.90;;;;;;5037748;28;20033;-76
2023/08/07 03:09:15;;;;;;;3.65;1.02;;;13.20;99.90;;;;;;5036546;28;20029;-77
2023/08/07 03:11:41;;;;;;;2.92;1.92;;;13.20;99.90;;;;;;5035332;28;20044;-77
2023/08/07 03:14:07;;;;;;;5.60;1.20;;;13.20;99.90;;;;;;5055470;28;20037;-77
2023/08/07 03:16:33;;;;;;;4.85;1.23;;;13.20;99.90;;;;;;5037125;28;20049;-78
2023/08/07 03:19:00;;;;;;;3.65;1.00;;;13.30;99.90;;;;;;5049522;28;20044;-75
2023/08/07 03:21:26;;;;;;;3.67;1.40;;;13.30;99.90;;;;;;5032785;28;20046;-78
2023/08/07 03:23:53;;;;;;;7.15;2.60;;;13.30;99.90;;;;;;5037242;28;20068;-78
2023/08/07 03:26:19;;;;;;;4.05;1.70;;;13.30;99.90;;;;;;5036671;28;20033;-77
2023/08/07 03:28:48;;;;;;;4.15;1.60;;;13.20;99.90;;;;;;5028979;28;20521;-79
2023/08/07 03:31:15;;;;;;;3.38;1.20;;;13.20;99.90;;;;;;5034275;28;20489;-75
2023/08/07 03:33:41;;;;;;;2.17;1.27;;;13.30;99.90;;;;;;5034900;28;20036;-77
2023/08/07 03:36:09;;;;;;;9.10;1.40;;;13.30;99.90;;;;;;5033923;28;20100;-77
2023/08/07 03:38:35;;;;;;;2.70;1.45;;;13.30;99.90;;;;;;5039767;28;20033;-76
2023/08/07 03:41:01;;;;;;;6.35;1.75;;;13.30;99.90;;;;;;5054827;28;20049;-77
2023/08/07 03:43:29;;;;;;;4.72;0.98;;;13.30;99.90;;;;;;5030899;28;20041;-79
2023/08/07 03:45:56;;;;;;;3.78;0.98;;;13.30;99.90;;;;;;5036435;28;20402;-76
2023/08/07 03:48:22;;;;;;;2.65;1.33;;;13.20;99.90;;;;;;5052374;28;20041;-75
2023/08/07 03:50:49;;;;;;;2.75;0.88;;;13.20;99.90;;;;;;5051681;28;20053;-75
2023/08/07 03:53:16;;;;;;;2.17;0.85;;;13.20;99.90;;;;;;5051693;28;20044;-75
2023/08/07 03:55:50;;;;;;;5.50;1.52;;;13.20;99.90;;;;;;5052513;28;20045;-78
2023/08/07 03:58:18;;;;;;;2.60;0.75;;;13.20;99.90;;;;;;5025323;28;20044;-75
2023/08/07 04:00:44;;;;;;;3.72;0.93;;;13.20;99.90;;;;;;5033449;28;20045;-75
2023/08/07 04:03:11;;;;;;;6.45;2.08;;;13.20;99.90;;;;;;5050265;28;20068;-76
2023/08/07 04:05:37;;;;;;;3.42;1.20;;;13.20;99.90;;;;;;5035977;28;20041;-76
2023/08/07 04:08:03;;;;;;;5.55;1.02;;;13.20;99.90;;;;;;5035472;28;20038;-77
2023/08/07 04:10:29;;;;;;;2.50;0.90;;;13.20;99.90;;;;;;5036249;28;20037;-77
2023/08/07 04:12:55;;;;;;;6.32;1.75;;;13.20;99.90;;;;;;5036593;28;20038;-76
2023/08/07 04:15:21;;;;;;;5.72;1.20;;;13.20;99.90;;;;;;5037500;28;20045;-75
2023/08/07 04:17:47;;;;;;;5.55;2.17;;;13.30;99.90;;;;;;5031345;28;20025;-77
2023/08/07 04:20:14;;;;;;;2.33;1.08;;;13.30;99.90;;;;;;5039291;28;20356;-83
2023/08/07 04:22:40;;;;;;;5.10;2.13;;;13.30;99.90;;;;;;5036792;28;20040;-83
2023/08/07 04:25:06;;;;;;;5.50;1.23;;;13.30;99.90;;;;;;5035481;28;20462;-85
2023/08/07 04:27:33;;;;;;;7.97;2.05;;;13.30;99.90;;;;;;5031716;28;20053;-84
2023/08/07 04:29:59;;;;;;;4.88;1.10;;;13.30;99.90;;;;;;5034444;28;20044;-82
2023/08/07 04:32:26;;;;;;;5.13;1.65;;;13.30;99.90;;;;;;5032674;28;20041;-81
2023/08/07 04:34:52;;;;;;;3.75;1.20;;;13.30;99.90;;;;;;5034297;28;20393;-81
2023/08/07 04:37:18;;;;;;;5.78;0.88;;;13.30;99.90;;;;;;5036000;28;20041;-80
2023/08/07 04:39:44;;;;;;;5.35;2.03;;;13.30;99.90;;;;;;5035230;28;20033;-81
2023/08/07 04:42:10;;;;;;;6.82;1.83;;;13.30;99.90;;;;;;5028631;28;20394;-83
2023/08/07 04:44:37;;;;;;;3.47;1.30;;;13.30;99.90;;;;;;5036979;28;20036;-80
2023/08/07 04:47:03;;;;;;;3.00;1.17;;;13.30;99.90;;;;;;5034351;28;20041;-81
2023/08/07 04:49:29;;;;;;;4.30;1.00;;;13.30;99.90;;;;;;5039976;28;20049;-82
2023/08/07 04:51:55;;;;;;;5.90;0.93;;;13.40;99.90;;;;;;5024666;28;20037;-81
2023/08/07 04:54:21;;;;;;;4.57;1.30;;;13.30;99.90;;;;;;5032252;28;20033;-82
2023/08/07 04:56:48;;;;;;;2.60;0.77;;;13.20;99.90;;;;;;5036444;28;20037;-80
2023/08/07 04:59:14;;;;;;;4.65;1.40;;;13.20;99.90;;;;;;5033162;28;20462;-82
2023/08/07 05:01:40;;;;;;;4.50;1.67;;;13.20;99.90;;;;;;5035819;28;20041;-81
2023/08/07 05:04:07;;;;;;;3.17;0.82;;;13.10;99.90;;;;;;5038274;28;20037;-83
2023/08/07 05:06:33;;;;;;;4.93;2.00;;;13.00;99.90;;;;;;5038588;28;20454;-83
2023/08/07 05:08:59;;;;;;;4.57;1.42;;;13.10;99.90;;;;;;5033539;28;20450;-82
2023/08/07 05:11:25;;;;;;;3.78;1.20;;;13.00;99.90;;;;;;5050687;28;20041;-82
2023/08/07 05:13:51;;;;;;;3.00;1.00;;;13.00;99.90;;;;;;5031099;28;20037;-82
2023/08/07 05:16:18;;;;;;;5.10;2.25;;;13.00;99.90;;;;;;5036727;28;20364;-83
2023/08/07 05:18:45;;;;;;;4.88;1.08;;;13.00;99.90;;;;;;5033133;28;20030;-81
2023/08/07 05:21:11;;;;;;;3.15;1.10;;;13.00;99.90;;;;;;5035622;28;20041;-82
2023/08/07 05:23:37;;;;;;;3.75;1.00;;;13.10;99.90;;;;;;5033732;28;20037;-81
2023/08/07 05:26:03;;;;;;;2.60;1.00;;;13.20;99.90;;;;;;5035284;28;20041;-83
2023/08/07 05:28:29;;;;;;;4.65;1.20;;;13.20;99.90;;;;;;5050620;28;20046;-83
2023/08/07 05:30:55;;;;;;;2.63;1.02;;;13.20;99.90;;;;;;5035887;28;20037;-83
2023/08/07 05:33:21;;;;;;;4.03;1.00;;;13.30;99.90;;;;;;5031708;28;20037;-82
2023/08/07 05:35:48;;;;;;;3.75;1.13;;;13.40;99.90;;;;;;5034369;28;20052;-84
2023/08/07 05:38:14;;;;;;;4.55;1.00;;;13.40;99.90;;;;;;5035400;28;20052;-83
2023/08/07 05:40:40;;;;;;;4.22;1.08;;;13.50;99.90;;;;;;5035664;28;20033;-82
2023/08/07 05:43:06;;;;;;;2.38;0.95;;;13.50;99.90;;;;;;5034882;28;20037;-81
2023/08/07 05:45:32;;;;;;;2.72;1.25;;;13.50;99.90;;;;;;5037939;28;20084;-81
2023/08/07 05:47:58;;;;;;;8.82;1.45;;;13.50;99.90;;;;;;5031401;28;20461;-79
2023/08/07 05:50:25;;;;;;;2.25;0.80;;;13.50;99.90;;;;;;5032061;28;20044;-82
2023/08/07 05:52:51;;;;;;;2.35;0.88;;;13.50;99.90;;;;;;5031244;28;20182;-80
2023/08/07 05:55:17;;;;;;;3.95;0.68;;;13.50;99.90;;;;;;5036257;28;20040;-81
2023/08/07 05:57:43;;;;;;;2.20;0.90;;;13.60;99.90;;;;;;5039688;28;20050;-80
2023/08/07 06:00:16;;;;;;;3.30;0.98;;;13.60;99.90;;;;;;5037857;28;20050;-79
2023/08/07 06:02:42;;;;;;;3.70;1.00;;;13.60;99.90;;;;;;5045290;28;20041;-82
2023/08/07 06:05:10;;;;;;;5.10;0.82;;;13.60;99.90;;;;;;5041742;28;20047;-80
2023/08/07 06:07:36;;;;;;;2.58;0.75;;;13.70;99.90;;;;;;5047902;28;20026;-82
2023/08/07 06:10:03;;;;;;;3.05;0.98;;;13.70;99.90;;;;;;5044451;28;20029;-79
2023/08/07 06:12:29;;;;;;;5.22;1.20;;;13.70;99.90;;;;;;5036174;28;20044;-81
2023/08/07 06:14:55;;;;;;;3.25;1.88;;;13.70;99.90;;;;;;5034592;28;20389;-78
2023/08/07 06:17:21;;;;;;;2.03;0.80;;;13.80;99.90;;;;;;5037688;28;20482;-79
2023/08/07 06:19:48;;;;;;;2.80;0.90;;;13.70;99.90;;;;;;5031060;28;20041;-80
2023/08/07 06:22:14;;;;;;;5.10;1.42;;;13.70;99.90;;;;;;5030669;28;20373;-80
2023/08/07 06:24:40;;;;;;;1.80;0.73;;;13.80;99.90;;;;;;5033608;28;20049;-81
2023/08/07 06:27:06;;;;;;;5.95;1.95;;;13.80;99.90;;;;;;5033505;28;20030;-82
2023/08/07 06:29:32;;;;;;;5.40;2.03;;;13.80;99.90;;;;;;5038145;28;20387;-81
2023/08/07 06:31:58;;;;;;;3.28;0.90;;;13.80;99.90;;;;;;5030131;28;20045;-80
2023/08/07 06:34:24;;;;;;;1.80;1.08;;;13.80;99.90;;;;;;5026218;28;20036;-82
2023/08/07 06:36:50;;;;;;;1.52;0.40;;;13.80;99.90;;;;;;5034112;28;20057;-80
2023/08/07 06:39:16;;;;;;;4.38;1.17;;;13.80;99.90;;;;;;5036312;28;20037;-80
2023/08/07 06:41:43;;;;;;;3.25;0.88;;;13.70;99.90;;;;;;5035442;28;20210;-80
2023/08/07 06:44:10;;;;;;;5.63;1.30;;;13.70;99.90;;;;;;5048677;28;20038;-80
2023/08/07 06:46:36;;;;;;;2.50;1.20;;;13.70;99.90;;;;;;5034078;28;20029;-80
2023/08/07 06:49:02;;;;;;;2.78;0.80;;;13.70;99.90;;;;;;5037295;28;20029;-80
2023/08/07 06:51:29;;;;;;;3.67;0.90;;;13.70;99.90;;;;;;5039994;28;20044;-79
2023/08/07 06:53:55;;;;;;;3.40;1.15;;;13.60;99.90;;;;;;5038323;28;20025;-79
2023/08/07 06:56:21;;;;;;;7.28;1.58;;;13.70;99.90;;;;;;5037001;28;20166;-80
2023/08/07 06:58:47;;;;;;;7.68;1.60;;;13.70;99.90;;;;;;5037518;28;20038;-80
2023/08/07 07:01:13;;;;;;;2.67;0.85;;;13.80;99.90;;;;;;5036252;28;20052;-81
2023/08/07 07:03:39;;;;;;;7.65;0.90;;;13.80;99.90;;;;;;5035669;28;20033;-83
2023/08/07 07:06:06;;;;;;;2.05;0.82;;;13.80;99.90;;;;;;5053389;28;20033;-79
2023/08/07 07:08:32;;;;;;;5.20;1.45;;;13.80;99.90;;;;;;5038332;28;20025;-80
2023/08/07 07:10:58;;;;;;;2.63;0.77;;;14.00;99.90;;;;;;5036512;28;20045;-79
2023/08/07 07:13:24;;;;;;;1.65;0.90;;;13.90;99.90;;;;;;5042559;28;20025;-79
2023/08/07 07:15:55;;;;;;;1.27;0.50;;;13.90;99.90;;;;;;5045669;28;20045;-80
2023/08/07 07:18:21;;;;;;;4.95;1.50;;;14.00;99.90;;;;;;5040216;28;20038;-80
2023/08/07 07:20:47;;;;;;;1.73;0.60;;;14.00;99.90;;;;;;5040323;28;20044;-81
2023/08/07 07:23:13;;;;;;;5.85;0.70;;;14.00;99.90;;;;;;5039354;28;20034;-80
2023/08/07 07:25:40;;;;;;;3.15;0.60;;;13.90;99.90;;;;;;5052799;28;20041;-80
2023/08/07 07:28:06;;;;;;;4.57;0.75;;;13.90;99.90;;;;;;5038859;28;20033;-80
2023/08/07 07:30:32;;;;;;;2.13;0.60;;;13.80;99.90;;;;;;5043449;28;20036;-79
2023/08/07 07:32:58;;;;;;;2.67;0.60;;;13.80;99.90;;;;;;5043712;28;20451;-81
2023/08/07 07:35:24;;;;;;;3.72;1.45;;;13.90;99.90;;;;;;5040337;28;20033;-79
2023/08/07 07:37:50;;;;;;;3.92;1.48;;;13.80;99.90;;;;;;5034326;28;20037;-82
2023/08/07 07:40:17;;;;;;;3.75;0.90;;;13.80;99.90;;;;;;5035164;28;20048;-79
2023/08/07 07:42:43;;;;;;;2.35;0.70;;;13.80;99.90;;;;;;5034517;28;20045;-81
2023/08/07 07:45:09;;;;;;;2.03;0.80;;;13.60;99.90;;;;;;5032377;28;20049;-79
2023/08/07 07:47:35;;;;;;;3.22;0.90;;;13.50;99.90;;;;;;5033508;28;20033;-82
2023/08/07 07:50:08;;;;;;;3.03;1.02;;;13.40;99.90;;;;;;5036686;28;20636;-81
2023/08/07 07:52:34;;;;;;;2.97;1.38;;;13.30;1.00;;;;;;5038034;28;20044;-80
2023/08/07 07:55:02;;;;;;;3.78;1.00;;;13.30;1.00;;;;;;5036497;28;20037;-81
2023/08/07 07:57:28;;;;;;;3.28;1.45;;;13.40;1.00;;;;;;5051047;28;20041;-82
2023/08/07 07:59:54;;;;;;;2.55;1.08;;;13.40;1.00;;;;;;5034292;28;20037;-82
2023/08/07 08:02:21;;;;;;;3.42;1.23;;;13.50;99.90;;;;;;5035091;28;20053;-80
2023/08/07 08:04:48;;;;;;;4.20;1.00;;;13.50;99.90;;;;;;5030526;28;20049;-82
2023/08/07 08:07:14;;;;;;;4.53;1.15;;;13.60;99.90;;;;;;5056757;28;20040;-81
2023/08/07 08:09:40;;;;;;;3.95;0.95;;;13.60;99.90;;;;;;5032640;28;20045;-82
2023/08/07 08:12:06;;;;;;;3.30;1.27;;;13.60;99.90;;;;;;5035286;28;20080;-82
2023/08/07 08:14:33;;;;;;;2.42;1.27;;;13.70;99.90;;;;;;5034464;28;20033;-81
2023/08/07 08:16:59;;;;;;;2.63;0.80;;;13.70;99.90;;;;;;5034948;28;20025;-81
2023/08/07 08:19:25;;;;;;;3.88;1.45;;;13.70;99.90;;;;;;5038631;28;20048;-83
2023/08/07 08:21:51;;;;;;;2.47;1.25;;;13.80;99.90;;;;;;5037541;28;20064;-82
2023/08/07 08:24:17;;;;;;;3.17;1.10;;;13.90;99.90;;;;;;5039291;28;20052;-81
2023/08/07 08:26:43;;;;;;;3.00;0.95;;;13.80;99.90;;;;;;5034815;28;20048;-83
2023/08/07 08:29:10;;;;;;;4.28;0.90;;;13.90;99.90;;;;;;5054026;28;20037;-81
2023/08/07 08:31:36;;;;;;;6.30;0.80;;;13.90;99.90;;;;;;5038445;28;20068;-81
2023/08/07 08:34:03;;;;;;;3.67;0.98;;;13.90;99.90;;;;;;5033523;28;20040;-82
2023/08/07 08:36:29;;;;;;;3.38;0.98;;;14.00;99.90;;;;;;5036266;28;20055;-80
2023/08/07 08:38:56;;;;;;;3.08;1.17;;;14.00;99.90;;;;;;5035466;28;20029;-81
2023/08/07 08:41:22;;;;;;;3.38;1.02;;;14.10;99.90;;;;;;5038465;28;20041;-81
2023/08/07 08:43:51;;;;;;;7.05;1.67;;;14.00;99.90;;;;;;5031458;28;20040;-81
2023/08/07 08:46:20;;;;;;;1.67;0.82;;;14.00;99.90;;;;;;5033830;28;20041;-82
2023/08/07 08:48:51;;;;;;;3.88;1.20;;;14.00;99.90;;;;;;5032896;28;20470;-83
2023/08/07 08:51:19;;;;;;;2.60;1.25;;;14.00;99.90;;;;;;5032175;28;20041;-81
2023/08/07 08:53:49;;;;;;;3.05;0.82;;;14.00;99.90;;;;;;5023780;28;20049;-80
2023/08/07 08:56:16;;;;;;;4.77;1.37;;;14.10;99.90;;;;;;5034257;28;20045;-81
2023/08/07 08:58:43;;;;;;;3.72;0.93;;;14.10;99.90;;;;;;5033920;28;20299;-81
2023/08/07 09:01:10;;;;;;;3.50;1.05;;;14.10;99.90;;;;;;5037975;28;20264;-82
2023/08/07 09:03:36;;;;;;;4.07;1.20;;;14.20;99.90;;;;;;5037950;28;20033;-80
2023/08/07 09:06:02;;;;;;;2.92;1.05;;;14.30;99.90;;;;;;5035194;28;20033;-79
2023/08/07 09:08:31;;;;;;;3.45;1.20;;;14.30;99.90;;;;;;5034874;28;20052;-83
2023/08/07 09:10:57;;;;;;;3.88;0.77;;;14.40;99.90;;;;;;5023087;28;20041;-83
2023/08/07 09:13:24;;;;;;;2.85;1.05;;;14.30;99.90;;;;;;5033266;28;20064;-81
2023/08/07 09:15:52;;;;;;;3.45;0.77;;;14.30;99.90;;;;;;5035252;28;20040;-82
2023/08/07 09:18:21;;;;;;;4.75;1.77;;;14.40;99.90;;;;;;5027872;28;20061;-84
2023/08/07 09:20:48;;;;;;;3.83;1.67;;;14.30;99.90;;;;;;5035446;28;20025;-84
2023/08/07 09:23:16;;;;;;;3.65;1.38;;;14.30;99.90;;;;;;5031664;28;20061;-83
2023/08/07 09:25:42;;;;;;;6.97;1.48;;;14.20;99.90;;;;;;5036866;28;20038;-82
2023/08/07 09:28:09;;;;;;;3.97;2.10;;;14.10;99.90;;;;;;5033752;28;20040;-81
2023/08/07 09:30:37;;;;;;;3.83;2.22;;;14.00;99.90;;;;;;5026034;28;20497;-81
2023/08/07 09:33:04;;;;;;;3.80;1.02;;;13.90;99.90;;;;;;5034753;28;20040;-81
2023/08/07 09:35:32;;;;;;;2.78;1.13;;;13.90;1.00;;;;;;5034319;28;20030;-80
2023/08/07 09:37:58;;;;;;;5.00;1.45;;;13.90;99.90;;;;;;5034063;28;20390;-83
2023/08/07 09:40:25;;;;;;;4.70;1.00;;;14.00;99.90;;;;;;5050121;28;20486;-81
2023/08/07 09:42:52;;;;;;;6.10;0.80;;;14.00;1.00;;;;;;5032917;28;20065;-80
2023/08/07 09:45:26;;;;;;;3.38;0.90;;;14.00;99.90;;;;;;5032850;28;20077;-81
2023/08/07 09:48:13;;;;;;;2.22;0.70;;;13.90;1.00;;;;;;5036540;28;20029;-81
2023/08/07 09:50:39;;;;;;;4.57;1.40;;;14.00;1.00;;;;;;5025413;28;20034;-80
2023/08/07 09:53:05;;;;;;;5.40;1.45;;;14.00;1.00;;;;;;5029148;28;20041;-81
2023/08/07 09:55:34;;;;;;;2.75;1.13;;;14.00;1.00;;;;;;5034994;28;20029;-82
2023/08/07 09:58:01;;;;;;;4.45;2.22;;;14.10;1.00;;;;;;5030838;28;20033;-81
2023/08/07 10:00:34;;;;;;;2.72;0.82;;;14.10;1.00;;;;;;5030765;28;20052;-80
2023/08/07 10:03:02;;;;;;;3.70;1.73;;;14.00;1.00;;;;;;5038069;28;20033;-80
2023/08/07 10:05:28;;;;;;;5.45;2.13;;;14.00;1.00;;;;;;5048628;28;20033;-80
2023/08/07 10:07:55;;;;;;;4.22;1.05;;;13.80;99.90;;;;;;5047757;28;20343;-80
2023/08/07 10:10:21;;;;;;;3.85;1.67;;;13.90;1.00;;;;;;5040116;28;20048;-82
2023/08/07 10:12:49;;;;;;;3.08;1.25;;;13.80;1.00;;;;;;5045430;28;20052;-83
2023/08/07 10:15:15;;;;;;;3.78;0.93;;;13.80;1.00;;;;;;5044176;28;20045;-83
2023/08/07 10:17:43;;;;;;;4.95;1.05;;;13.90;1.00;;;;;;5045728;28;20037;-82
2023/08/07 10:20:09;;;;;;;4.03;0.80;;;13.80;1.00;;;;;;5043420;28;20053;-82
2023/08/07 10:22:38;;;;;;;3.72;0.95;;;13.70;1.00;;;;;;5041683;28;20041;-82
2023/08/07 10:25:06;;;;;;;4.05;1.30;;;13.80;1.00;;;;;;5040781;28;20051;-83
2023/08/07 10:27:36;;;;;;;1.77;0.80;;;13.80;1.00;;;;;;5055340;28;20041;-83
2023/08/07 10:30:06;;;;;;;5.15;1.60;;;13.90;1.00;;;;;;5038442;28;20072;-82
2023/08/07 10:32:33;;;;;;;3.38;0.80;;;13.90;1.00;;;;;;5052862;28;20048;-83
2023/08/07 10:35:04;;;;;;;3.95;1.20;;;14.00;1.00;;;;;;5033478;28;20471;-82
2023/08/07 10:37:40;;;;;;;3.65;1.35;;;14.00;1.00;;;;;;5036567;28;20390;-82
2023/08/07 10:40:09;;;;;;;5.50;1.33;;;14.10;1.00;;;;;;5036175;28;20052;-82
2023/08/07 10:42:54;;;;;;;4.78;2.05;;;14.00;1.00;;;;;;5035546;28;20048;-82
2023/08/07 10:45:22;;;;;;;3.70;1.38;;;13.90;1.00;;;;;;5052083;28;20394;-82
2023/08/07 10:48:01;;;;;;;5.00;1.20;;;13.90;1.00;;;;;;5039973;28;20041;-82
2023/08/07 10:50:32;;;;;;;4.53;1.60;;;13.80;1.00;;;;;;5036188;28;20032;-82
2023/08/07 10:53:04;;;;;;;2.95;1.15;;;13.80;1.00;;;;;;5037987;28;20045;-83
2023/08/07 10:55:47;;;;;;;4.78;1.85;;;13.80;1.00;;;;;;5036737;28;20049;-83
2023/08/07 10:58:26;;;;;;;11.27;2.38;;;13.60;6.40;;;;;;5037380;28;20026;-83
2023/08/07 11:01:31;;;;;;;3.05;1.45;;;13.70;24.30;;;;;;5034654;28;20592;-81
2023/08/07 11:03:59;;;;;;;3.97;0.98;;;13.60;35.90;;;;;;5033488;28;20034;-82
2023/08/07 11:06:30;;;;;;;3.13;1.65;;;13.60;27.20;;;;;;5040826;28;20398;-82
2023/08/07 11:09:01;;;;;;;4.93;1.77;;;13.60;49.10;;;;;;5039336;28;20052;-82
2023/08/07 11:11:27;;;;;;;4.97;1.40;;;13.60;89.90;;;;;;5037702;28;20034;-83
2023/08/07 11:13:53;;;;;;;4.05;1.50;;;13.80;99.90;;;;;;5038710;28;20038;-82
2023/08/07 11:16:22;;;;;;;3.80;1.52;;;13.90;99.90;;;;;;5039545;28;20466;-82
2023/08/07 11:18:49;;;;;;;3.78;1.73;;;14.00;99.90;;;;;;5034144;28;20033;-81
2023/08/07 11:21:15;;;;;;;3.25;1.95;;;14.10;99.90;;;;;;5037448;28;20030;-81
2023/08/07 11:23:43;;;;;;;6.03;1.67;;;14.20;99.90;;;;;;5034500;28;20034;-82
2023/08/07 11:26:10;;;;;;;7.15;2.65;;;14.40;99.90;;;;;;5036758;28;20048;-82
2023/08/07 11:28:36;;;;;;;4.07;1.48;;;14.70;99.90;;;;;;5041965;28;20471;-82
2023/08/07 11:31:02;;;;;;;5.40;1.20;;;14.90;99.90;;;;;;5032845;28;20037;-82
2023/08/07 11:33:29;;;;;;;3.17;1.55;;;15.10;99.90;;;;;;5035905;28;20053;-81
2023/08/07 11:35:55;;;;;;;7.65;1.20;;;15.20;99.90;;;;;;5046010;28;20386;-80
2023/08/07 11:38:37;;;;;;;3.20;1.20;;;15.30;99.90;;;;;;5042245;28;20029;-80
2023/08/07 11:41:08;;;;;;;2.95;1.63;;;15.30;99.90;;;;;;5034970;28;20471;-81
2023/08/07 11:43:35;;;;;;;3.10;1.20;;;15.20;99.90;;;;;;5034804;28;20375;-81
2023/08/07 11:46:03;;;;;;;3.72;1.60;;;15.10;99.90;;;;;;5035361;28;20087;-81
2023/08/07 11:48:31;;;;;;;3.50;1.38;;;15.10;99.90;;;;;;5039486;28;20497;-82
2023/08/07 11:50:58;;;;;;;5.13;1.83;;;15.10;99.90;;;;;;5035258;28;20033;-82
2023/08/07 11:53:25;;;;;;;5.03;2.45;;;15.10;99.90;;;;;;5037199;28;20363;-83
2023/08/07 11:56:06;;;;;;;5.07;2.35;;;15.00;99.90;;;;;;5037671;28;20391;-82
2023/08/07 11:58:38;;;;;;;6.03;3.00;;;15.00;99.90;;;;;;5033871;28;20117;-82
2023/08/07 12:01:15;;;;;;;6.90;3.53;;;14.90;99.90;;;;;;5034151;28;20049;-81
2023/08/07 12:03:51;;;;;;;8.00;3.38;;;14.90;99.90;;;;;;5037221;28;20042;-82
2023/08/07 12:06:20;;;;;;;3.55;2.00;;;14.80;99.90;;;;;;5035340;28;20042;-82
2023/08/07 12:08:49;;;;;;;3.65;2.22;;;14.70;99.90;;;;;;5038357;28;20363;-81
2023/08/07 12:11:15;;;;;;;4.90;2.05;;;14.60;99.90;;;;;;5031885;28;20045;-81
2023/08/07 12:13:44;;;;;;;4.57;2.03;;;14.50;99.90;;;;;;5037356;28;20041;-82
2023/08/07 12:16:15;;;;;;;5.07;1.42;;;14.40;99.90;;;;;;5034601;28;20029;-81
2023/08/07 12:18:45;;;;;;;;;;;14.40;99.90;;;;;;5038134;28;20029;-82
2023/08/07 12:21:14;;;;;;;3.27;1.63;;;14.40;99.90;;;;;;5034601;28;20392;-82
2023/08/07 12:23:40;;;;;;;3.08;1.05;;;14.50;99.90;;;;;;5036162;28;20287;-82
2023/08/07 12:26:09;;;;;;;4.40;1.95;;;14.50;99.90;;;;;;5032430;28;20045;-83
2023/08/07 12:28:36;;;;;;;3.65;1.75;;;14.60;99.90;;;;;;5033458;28;20436;-82
2023/08/07 12:31:02;;;;;;;4.75;1.52;;;14.60;99.90;;;;;;5033785;28;20454;-83
2023/08/07 12:33:29;;;;;;;8.90;1.63;;;14.60;99.90;;;;;;5031073;28;20038;-83
2023/08/07 12:35:56;;;;;;;4.22;2.65;;;14.70;99.90;;;;;;5034823;28;20400;-82
2023/08/07 12:38:22;;;;;;;5.38;1.88;;;14.80;99.90;;;;;;5038367;28;20112;-82
2023/08/07 12:40:49;;;;;;;3.83;1.33;;;14.90;99.90;;;;;;5036570;28;20030;-82
2023/08/07 12:43:15;;;;;;;4.32;2.05;;;15.00;99.90;;;;;;5035392;28;20493;-82
2023/08/07 12:45:41;;;;;;;2.92;1.15;;;15.10;99.90;;;;;;5034039;28;20029;-83
2023/08/07 12:48:08;;;;;;;3.42;1.80;;;15.20;99.90;;;;;;5035589;28;20033;-84
2023/08/07 12:50:34;;;;;;;2.33;1.00;;;15.40;99.90;;;;;;5030652;28;20036;-82